sensor_id;sensor_type;location;lat;lon;timestamp;P1;durP1;ratioP1;P2;durP2;ratioP2
78668;SDS011;67984;45.118;20.724;2023-04-15T00:06:51;10.57;;;4.80;;
78668;SDS011;67984;45.118;20.724;2023-04-15T00:16:52;12.40;;;5.40;;
78668;SDS011;67984;45.118;20.724;2023-04-15T00:26:55;13.20;;;6.32;;
78668;SDS011;67984;45.118;20.724;2023-04-15T00:36:57;18.88;;;7.68;;
78668;SDS011;67984;45.118;20.724;2023-04-15T00:46:59;45.43;;;17.87;;
78668;SDS011;67984;45.118;20.724;2023-04-15T00:57:00;23.23;;;9.07;;
78668;SDS011;67984;45.118;20.724;2023-04-15T01:07:02;30.10;;;11.93;;
78668;SDS011;67984;45.118;20.724;2023-04-15T01:17:03;16.73;;;8.43;;
78668;SDS011;67984;45.118;20.724;2023-04-15T01:27:04;8.23;;;3.93;;
78668;SDS011;67984;45.118;20.724;2023-04-15T01:37:05;10.65;;;5.63;;
78668;SDS011;67984;45.118;20.724;2023-04-15T01:47:06;9.95;;;4.15;;
78668;SDS011;67984;45.118;20.724;2023-04-15T01:57:06;11.90;;;6.33;;
78668;SDS011;67984;45.118;20.724;2023-04-15T02:07:08;20.40;;;6.47;;
78668;SDS011;67984;45.118;20.724;2023-04-15T02:17:09;6.90;;;4.65;;
78668;SDS011;67984;45.118;20.724;2023-04-15T02:27:10;13.70;;;5.20;;
78668;SDS011;67984;45.118;20.724;2023-04-15T02:37:11;8.52;;;4.32;;
78668;SDS011;67984;45.118;20.724;2023-04-15T02:47:12;6.82;;;3.78;;
78668;SDS011;67984;45.118;20.724;2023-04-15T02:57:16;6.50;;;3.50;;
78668;SDS011;67984;45.118;20.724;2023-04-15T03:07:17;8.37;;;3.10;;
78668;SDS011;67984;45.118;20.724;2023-04-15T03:17:18;9.82;;;3.45;;
78668;SDS011;67984;45.118;20.724;2023-04-15T03:27:19;5.63;;;3.15;;
78668;SDS011;67984;45.118;20.724;2023-04-15T03:37:21;8.40;;;2.95;;
78668;SDS011;67984;45.118;20.724;2023-04-15T03:47:22;9.40;;;5.47;;
78668;SDS011;67984;45.118;20.724;2023-04-15T03:57:22;8.38;;;3.33;;
78668;SDS011;67984;45.118;20.724;2023-04-15T04:07:23;8.40;;;3.03;;
78668;SDS011;67984;45.118;20.724;2023-04-15T04:17:24;12.80;;;3.55;;
78668;SDS011;67984;45.118;20.724;2023-04-15T04:27:25;8.47;;;3.50;;
78668;SDS011;67984;45.118;20.724;2023-04-15T04:37:26;8.47;;;3.10;;
78668;SDS011;67984;45.118;20.724;2023-04-15T04:47:26;6.33;;;2.93;;
78668;SDS011;67984;45.118;20.724;2023-04-15T04:57:27;9.23;;;3.07;;
78668;SDS011;67984;45.118;20.724;2023-04-15T05:07:28;8.27;;;2.93;;
78668;SDS011;67984;45.118;20.724;2023-04-15T05:17:28;4.60;;;1.93;;
78668;SDS011;67984;45.118;20.724;2023-04-15T05:27:32;3.22;;;1.80;;
78668;SDS011;67984;45.118;20.724;2023-04-15T05:37:33;7.88;;;2.22;;
78668;SDS011;67984;45.118;20.724;2023-04-15T05:47:34;3.90;;;1.83;;
78668;SDS011;67984;45.118;20.724;2023-04-15T05:57:36;3.38;;;1.70;;
78668;SDS011;67984;45.118;20.724;2023-04-15T06:07:37;5.25;;;2.28;;
78668;SDS011;67984;45.118;20.724;2023-04-15T06:17:38;3.80;;;1.45;;
78668;SDS011;67984;45.118;20.724;2023-04-15T06:27:38;4.73;;;2.10;;
78668;SDS011;67984;45.118;20.724;2023-04-15T06:37:39;3.08;;;1.25;;
78668;SDS011;67984;45.118;20.724;2023-04-15T06:47:40;3.63;;;1.45;;
78668;SDS011;67984;45.118;20.724;2023-04-15T06:57:41;1.33;;;0.40;;
78668;SDS011;67984;45.118;20.724;2023-04-15T07:07:42;3.30;;;1.10;;
78668;SDS011;67984;45.118;20.724;2023-04-15T07:17:42;2.40;;;1.33;;
78668;SDS011;67984;45.118;20.724;2023-04-15T07:27:43;2.47;;;1.43;;
78668;SDS011;67984;45.118;20.724;2023-04-15T07:37:46;3.50;;;1.63;;
78668;SDS011;67984;45.118;20.724;2023-04-15T07:47:47;2.58;;;1.50;;
78668;SDS011;67984;45.118;20.724;2023-04-15T07:57:48;2.43;;;0.50;;
78668;SDS011;67984;45.118;20.724;2023-04-15T08:07:51;4.20;;;0.60;;
78668;SDS011;67984;45.118;20.724;2023-04-15T08:17:51;3.30;;;1.03;;
78668;SDS011;67984;45.118;20.724;2023-04-15T08:27:54;5.28;;;1.52;;
78668;SDS011;67984;45.118;20.724;2023-04-15T08:37:56;3.20;;;1.63;;
78668;SDS011;67984;45.118;20.724;2023-04-15T08:47:57;0.93;;;0.63;;
78668;SDS011;67984;45.118;20.724;2023-04-15T08:57:58;1.70;;;0.70;;
78668;SDS011;67984;45.118;20.724;2023-04-15T09:08:02;2.25;;;1.00;;
78668;SDS011;67984;45.118;20.724;2023-04-15T09:18:03;2.92;;;0.40;;
78668;SDS011;67984;45.118;20.724;2023-04-15T09:28:05;3.70;;;1.20;;
78668;SDS011;67984;45.118;20.724;2023-04-15T09:38:06;3.40;;;0.63;;
78668;SDS011;67984;45.118;20.724;2023-04-15T09:48:19;3.92;;;1.08;;
78668;SDS011;67984;45.118;20.724;2023-04-15T09:58:21;0.43;;;0.30;;
78668;SDS011;67984;45.118;20.724;2023-04-15T10:08:24;2.97;;;0.50;;
78668;SDS011;67984;45.118;20.724;2023-04-15T10:18:27;0.75;;;0.55;;
78668;SDS011;67984;45.118;20.724;2023-04-15T10:28:35;0.73;;;0.10;;
78668;SDS011;67984;45.118;20.724;2023-04-15T10:38:43;0.82;;;0.20;;
78668;SDS011;67984;45.118;20.724;2023-04-15T10:48:47;28.27;;;15.02;;
78668;SDS011;67984;45.118;20.724;2023-04-15T10:58:48;1.15;;;0.55;;
78668;SDS011;67984;45.118;20.724;2023-04-15T11:08:56;1.13;;;0.10;;
78668;SDS011;67984;45.118;20.724;2023-04-15T11:18:58;0.40;;;0.10;;
78668;SDS011;67984;45.118;20.724;2023-04-15T11:28:59;2.20;;;0.60;;
78668;SDS011;67984;45.118;20.724;2023-04-15T11:39:01;0.40;;;0.25;;
78668;SDS011;67984;45.118;20.724;2023-04-15T11:49:01;1.40;;;0.20;;
78668;SDS011;67984;45.118;20.724;2023-04-15T11:59:03;0.80;;;0.20;;
78668;SDS011;67984;45.118;20.724;2023-04-15T12:09:11;2.20;;;0.40;;
78668;SDS011;67984;45.118;20.724;2023-04-15T12:19:13;0.52;;;0.20;;
78668;SDS011;67984;45.118;20.724;2023-04-15T12:29:15;0.57;;;0.17;;
78668;SDS011;67984;45.118;20.724;2023-04-15T12:39:17;2.00;;;0.50;;
78668;SDS011;67984;45.118;20.724;2023-04-15T12:49:20;2.33;;;0.68;;
78668;SDS011;67984;45.118;20.724;2023-04-15T12:59:21;0.25;;;0.10;;
78668;SDS011;67984;45.118;20.724;2023-04-15T13:09:23;0.65;;;0.15;;
78668;SDS011;67984;45.118;20.724;2023-04-15T13:19:24;1.10;;;0.30;;
78668;SDS011;67984;45.118;20.724;2023-04-15T13:29:25;1.17;;;0.63;;
78668;SDS011;67984;45.118;20.724;2023-04-15T13:39:25;0.85;;;0.60;;
78668;SDS011;67984;45.118;20.724;2023-04-15T13:49:26;2.30;;;0.50;;
78668;SDS011;67984;45.118;20.724;2023-04-15T13:59:27;0.83;;;0.40;;
78668;SDS011;67984;45.118;20.724;2023-04-15T14:09:27;2.83;;;0.77;;
78668;SDS011;67984;45.118;20.724;2023-04-15T14:19:30;1.10;;;0.40;;
78668;SDS011;67984;45.118;20.724;2023-04-15T14:29:43;3.33;;;0.88;;
78668;SDS011;67984;45.118;20.724;2023-04-15T14:39:54;11.35;;;2.70;;
78668;SDS011;67984;45.118;20.724;2023-04-15T14:49:55;8.07;;;2.53;;
78668;SDS011;67984;45.118;20.724;2023-04-15T14:59:56;7.90;;;2.10;;
78668;SDS011;67984;45.118;20.724;2023-04-15T15:09:56;3.03;;;1.10;;
78668;SDS011;67984;45.118;20.724;2023-04-15T15:19:57;7.07;;;1.63;;
78668;SDS011;67984;45.118;20.724;2023-04-15T15:29:58;5.70;;;2.15;;
78668;SDS011;67984;45.118;20.724;2023-04-15T15:39:59;5.53;;;1.37;;
78668;SDS011;67984;45.118;20.724;2023-04-15T15:50:00;8.17;;;2.23;;
78668;SDS011;67984;45.118;20.724;2023-04-15T16:00:06;14.18;;;6.53;;
78668;SDS011;67984;45.118;20.724;2023-04-15T16:10:09;22.48;;;10.68;;
78668;SDS011;67984;45.118;20.724;2023-04-15T16:20:10;7.38;;;3.00;;
78668;SDS011;67984;45.118;20.724;2023-04-15T16:30:11;3.53;;;1.13;;
78668;SDS011;67984;45.118;20.724;2023-04-15T16:40:12;7.80;;;2.60;;
78668;SDS011;67984;45.118;20.724;2023-04-15T16:50:13;11.90;;;4.67;;
78668;SDS011;67984;45.118;20.724;2023-04-15T17:00:14;11.95;;;4.43;;
78668;SDS011;67984;45.118;20.724;2023-04-15T17:10:15;29.95;;;10.52;;
78668;SDS011;67984;45.118;20.724;2023-04-15T17:20:15;16.03;;;4.73;;
78668;SDS011;67984;45.118;20.724;2023-04-15T17:30:18;62.97;;;25.25;;
78668;SDS011;67984;45.118;20.724;2023-04-15T17:40:19;19.80;;;7.90;;
78668;SDS011;67984;45.118;20.724;2023-04-15T17:50:20;21.33;;;10.18;;
78668;SDS011;67984;45.118;20.724;2023-04-15T18:00:21;5.47;;;2.67;;
78668;SDS011;67984;45.118;20.724;2023-04-15T18:10:22;23.60;;;10.18;;
78668;SDS011;67984;45.118;20.724;2023-04-15T18:20:25;66.80;;;24.92;;
78668;SDS011;67984;45.118;20.724;2023-04-15T18:30:26;60.53;;;27.58;;
78668;SDS011;67984;45.118;20.724;2023-04-15T18:40:27;53.00;;;21.90;;
78668;SDS011;67984;45.118;20.724;2023-04-15T18:50:27;62.37;;;22.90;;
78668;SDS011;67984;45.118;20.724;2023-04-15T19:00:28;54.77;;;24.03;;
78668;SDS011;67984;45.118;20.724;2023-04-15T19:10:29;31.00;;;14.90;;
78668;SDS011;67984;45.118;20.724;2023-04-15T19:20:32;22.35;;;9.38;;
78668;SDS011;67984;45.118;20.724;2023-04-15T19:30:32;12.47;;;5.37;;
78668;SDS011;67984;45.118;20.724;2023-04-15T19:40:34;13.75;;;7.05;;
78668;SDS011;67984;45.118;20.724;2023-04-15T19:50:35;7.50;;;4.17;;
78668;SDS011;67984;45.118;20.724;2023-04-15T20:00:37;6.32;;;3.55;;
78668;SDS011;67984;45.118;20.724;2023-04-15T20:10:38;3.20;;;1.95;;
78668;SDS011;67984;45.118;20.724;2023-04-15T20:20:39;8.40;;;4.03;;
78668;SDS011;67984;45.118;20.724;2023-04-15T20:30:40;2.77;;;1.83;;
78668;SDS011;67984;45.118;20.724;2023-04-15T20:40:41;4.50;;;1.50;;
78668;SDS011;67984;45.118;20.724;2023-04-15T20:50:41;5.55;;;3.00;;
78668;SDS011;67984;45.118;20.724;2023-04-15T21:00:42;5.88;;;3.22;;
78668;SDS011;67984;45.118;20.724;2023-04-15T21:10:44;6.35;;;2.15;;
78668;SDS011;67984;45.118;20.724;2023-04-15T21:20:45;4.60;;;2.47;;
78668;SDS011;67984;45.118;20.724;2023-04-15T21:30:56;2.93;;;2.00;;
78668;SDS011;67984;45.118;20.724;2023-04-15T21:41:13;3.38;;;2.05;;
78668;SDS011;67984;45.118;20.724;2023-04-15T21:51:15;6.13;;;2.17;;
78668;SDS011;67984;45.118;20.724;2023-04-15T22:01:15;5.07;;;2.80;;
78668;SDS011;67984;45.118;20.724;2023-04-15T22:11:17;6.67;;;2.33;;
78668;SDS011;67984;45.118;20.724;2023-04-15T22:21:29;6.78;;;2.28;;
78668;SDS011;67984;45.118;20.724;2023-04-15T22:31:31;4.82;;;1.80;;
78668;SDS011;67984;45.118;20.724;2023-04-15T22:41:31;4.77;;;2.07;;
78668;SDS011;67984;45.118;20.724;2023-04-15T22:51:32;2.47;;;1.10;;
78668;SDS011;67984;45.118;20.724;2023-04-15T23:01:33;2.78;;;1.58;;
78668;SDS011;67984;45.118;20.724;2023-04-15T23:11:34;2.60;;;1.17;;
78668;SDS011;67984;45.118;20.724;2023-04-15T23:21:35;2.50;;;0.87;;
78668;SDS011;67984;45.118;20.724;2023-04-15T23:31:36;7.00;;;1.60;;
78668;SDS011;67984;45.118;20.724;2023-04-15T23:41:36;2.97;;;1.53;;
78668;SDS011;67984;45.118;20.724;2023-04-15T23:51:37;5.63;;;1.90;;
